sensor_id;sensor_type;location;lat;lon;timestamp;temperature;humidity
1578;DHT22;57623;53.608;10.004;2023-04-01T00:00:51;11.00;99.90
1578;DHT22;57623;53.608;10.004;2023-04-01T00:03:20;11.00;99.90
1578;DHT22;57623;53.608;10.004;2023-04-01T00:05:49;10.90;99.90
1578;DHT22;57623;53.608;10.004;2023-04-01T00:08:17;10.90;99.90
1578;DHT22;57623;53.608;10.004;2023-04-01T00:10:45;10.90;99.90
1578;DHT22;57623;53.608;10.004;2023-04-01T00:13:13;10.90;99.90
1578;DHT22;57623;53.608;10.004;2023-04-01T00:15:43;10.90;99.90
1578;DHT22;57623;53.608;10.004;2023-04-01T00:18:12;10.90;99.90
1578;DHT22;57623;53.608;10.004;2023-04-01T00:20:43;10.90;99.90
1578;DHT22;57623;53.608;10.004;2023-04-01T00:23:12;10.90;99.90
1578;DHT22;57623;53.608;10.004;2023-04-01T00:25:40;10.90;99.90
1578;DHT22;57623;53.608;10.004;2023-04-01T00:28:08;10.90;99.90
1578;DHT22;57623;53.608;10.004;2023-04-01T00:30:36;10.90;99.90
1578;DHT22;57623;53.608;10.004;2023-04-01T00:33:05;10.90;99.90
1578;DHT22;57623;53.608;10.004;2023-04-01T00:35:33;10.80;99.90
1578;DHT22;57623;53.608;10.004;2023-04-01T00:38:02;10.80;99.90
1578;DHT22;57623;53.608;10.004;2023-04-01T00:40:33;10.80;99.90
1578;DHT22;57623;53.608;10.004;2023-04-01T00:43:02;10.80;99.90
1578;DHT22;57623;53.608;10.004;2023-04-01T00:45:33;10.80;99.90
1578;DHT22;57623;53.608;10.004;2023-04-01T00:48:07;10.80;99.90
1578;DHT22;57623;53.608;10.004;2023-04-01T00:50:37;10.80;99.90
1578;DHT22;57623;53.608;10.004;2023-04-01T00:53:07;10.80;99.90
1578;DHT22;57623;53.608;10.004;2023-04-01T00:55:40;10.80;99.90
1578;DHT22;57623;53.608;10.004;2023-04-01T00:58:13;10.80;99.90
1578;DHT22;57623;53.608;10.004;2023-04-01T01:00:42;10.70;99.90
1578;DHT22;57623;53.608;10.004;2023-04-01T01:03:12;10.80;99.90
1578;DHT22;57623;53.608;10.004;2023-04-01T01:05:56;10.70;99.90
1578;DHT22;57623;53.608;10.004;2023-04-01T01:08:35;10.80;99.90
1578;DHT22;57623;53.608;10.004;2023-04-01T01:11:10;10.70;99.90
1578;DHT22;57623;53.608;10.004;2023-04-01T01:13:43;10.70;99.90
1578;DHT22;57623;53.608;10.004;2023-04-01T01:16:22;10.70;99.90
1578;DHT22;57623;53.608;10.004;2023-04-01T01:18:58;10.70;99.90
1578;DHT22;57623;53.608;10.004;2023-04-01T01:21:49;10.70;99.90
1578;DHT22;57623;53.608;10.004;2023-04-01T01:24:50;10.70;99.90
1578;DHT22;57623;53.608;10.004;2023-04-01T01:27:20;10.70;99.90
1578;DHT22;57623;53.608;10.004;2023-04-01T01:30:13;10.70;99.90
1578;DHT22;57623;53.608;10.004;2023-04-01T01:33:02;10.70;99.90
1578;DHT22;57623;53.608;10.004;2023-04-01T01:35:38;10.70;99.90
1578;DHT22;57623;53.608;10.004;2023-04-01T01:38:12;10.70;99.90
1578;DHT22;57623;53.608;10.004;2023-04-01T01:40:43;10.70;99.90
1578;DHT22;57623;53.608;10.004;2023-04-01T01:43:16;10.70;99.90
1578;DHT22;57623;53.608;10.004;2023-04-01T01:45:48;10.70;99.90
1578;DHT22;57623;53.608;10.004;2023-04-01T01:48:19;10.70;99.90
1578;DHT22;57623;53.608;10.004;2023-04-01T01:50:49;10.70;99.90
1578;DHT22;57623;53.608;10.004;2023-04-01T01:53:17;10.70;99.90
1578;DHT22;57623;53.608;10.004;2023-04-01T01:55:47;10.60;99.90
1578;DHT22;57623;53.608;10.004;2023-04-01T01:58:18;10.60;99.90
1578;DHT22;57623;53.608;10.004;2023-04-01T02:00:50;10.60;99.90
1578;DHT22;57623;53.608;10.004;2023-04-01T02:03:21;10.60;99.90
1578;DHT22;57623;53.608;10.004;2023-04-01T02:05:53;10.60;99.90
1578;DHT22;57623;53.608;10.004;2023-04-01T02:08:25;10.60;99.90
1578;DHT22;57623;53.608;10.004;2023-04-01T02:10:57;10.60;99.90
1578;DHT22;57623;53.608;10.004;2023-04-01T02:13:31;10.60;99.90
1578;DHT22;57623;53.608;10.004;2023-04-01T02:16:06;10.60;99.90
1578;DHT22;57623;53.608;10.004;2023-04-01T02:18:38;10.60;99.90
1578;DHT22;57623;53.608;10.004;2023-04-01T02:21:08;10.60;99.90
1578;DHT22;57623;53.608;10.004;2023-04-01T02:23:37;10.60;99.90
1578;DHT22;57623;53.608;10.004;2023-04-01T02:26:07;10.60;99.90
1578;DHT22;57623;53.608;10.004;2023-04-01T02:28:37;10.60;99.90
1578;DHT22;57623;53.608;10.004;2023-04-01T02:31:07;10.60;99.90
1578;DHT22;57623;53.608;10.004;2023-04-01T02:33:38;10.60;99.90
1578;DHT22;57623;53.608;10.004;2023-04-01T02:36:11;10.60;99.90
1578;DHT22;57623;53.608;10.004;2023-04-01T02:38:40;10.60;99.90
1578;DHT22;57623;53.608;10.004;2023-04-01T02:41:08;10.60;99.90
1578;DHT22;57623;53.608;10.004;2023-04-01T02:43:36;10.60;99.90
1578;DHT22;57623;53.608;10.004;2023-04-01T02:46:04;10.60;99.90
1578;DHT22;57623;53.608;10.004;2023-04-01T02:48:32;10.60;99.90
1578;DHT22;57623;53.608;10.004;2023-04-01T02:51:00;10.60;99.90
1578;DHT22;57623;53.608;10.004;2023-04-01T02:53:30;10.60;99.90
1578;DHT22;57623;53.608;10.004;2023-04-01T02:55:58;10.60;99.90
1578;DHT22;57623;53.608;10.004;2023-04-01T02:58:26;10.60;99.90
1578;DHT22;57623;53.608;10.004;2023-04-01T03:00:54;10.50;99.90
1578;DHT22;57623;53.608;10.004;2023-04-01T03:03:22;10.60;99.90
1578;DHT22;57623;53.608;10.004;2023-04-01T03:05:50;10.50;99.90
1578;DHT22;57623;53.608;10.004;2023-04-01T03:08:18;10.50;99.90
1578;DHT22;57623;53.608;10.004;2023-04-01T03:10:47;10.50;99.90
1578;DHT22;57623;53.608;10.004;2023-04-01T03:13:15;10.50;99.90
1578;DHT22;57623;53.608;10.004;2023-04-01T03:15:43;10.50;99.90
1578;DHT22;57623;53.608;10.004;2023-04-01T03:18:11;10.50;99.90
1578;DHT22;57623;53.608;10.004;2023-04-01T03:20:40;10.50;99.90
1578;DHT22;57623;53.608;10.004;2023-04-01T03:23:08;10.50;99.90
1578;DHT22;57623;53.608;10.004;2023-04-01T03:25:36;10.50;99.90
1578;DHT22;57623;53.608;10.004;2023-04-01T03:28:05;10.50;99.90
1578;DHT22;57623;53.608;10.004;2023-04-01T03:30:33;10.50;99.90
1578;DHT22;57623;53.608;10.004;2023-04-01T03:33:02;10.50;99.90
1578;DHT22;57623;53.608;10.004;2023-04-01T03:35:30;10.50;99.90
1578;DHT22;57623;53.608;10.004;2023-04-01T03:37:59;10.50;99.90
1578;DHT22;57623;53.608;10.004;2023-04-01T03:40:27;10.50;99.90
1578;DHT22;57623;53.608;10.004;2023-04-01T03:42:55;10.50;99.90
1578;DHT22;57623;53.608;10.004;2023-04-01T03:45:24;10.50;99.90
1578;DHT22;57623;53.608;10.004;2023-04-01T03:47:52;10.50;99.90
1578;DHT22;57623;53.608;10.004;2023-04-01T03:50:21;10.50;99.90
1578;DHT22;57623;53.608;10.004;2023-04-01T03:52:49;10.50;99.90
1578;DHT22;57623;53.608;10.004;2023-04-01T03:55:17;10.50;99.90
1578;DHT22;57623;53.608;10.004;2023-04-01T03:57:45;10.50;99.90
1578;DHT22;57623;53.608;10.004;2023-04-01T04:00:13;10.40;99.90
1578;DHT22;57623;53.608;10.004;2023-04-01T04:02:43;10.50;99.90
1578;DHT22;57623;53.608;10.004;2023-04-01T04:05:11;10.50;99.90
1578;DHT22;57623;53.608;10.004;2023-04-01T04:07:39;10.50;99.90
1578;DHT22;57623;53.608;10.004;2023-04-01T04:10:08;10.40;99.90
1578;DHT22;57623;53.608;10.004;2023-04-01T04:12:36;10.40;99.90
1578;DHT22;57623;53.608;10.004;2023-04-01T04:15:05;10.40;99.90
1578;DHT22;57623;53.608;10.004;2023-04-01T04:17:33;10.40;99.90
1578;DHT22;57623;53.608;10.004;2023-04-01T04:20:04;10.40;99.90
1578;DHT22;57623;53.608;10.004;2023-04-01T04:22:32;10.40;99.90
1578;DHT22;57623;53.608;10.004;2023-04-01T04:25:00;10.40;99.90
1578;DHT22;57623;53.608;10.004;2023-04-01T04:27:28;10.40;99.90
1578;DHT22;57623;53.608;10.004;2023-04-01T04:29:56;10.40;99.90
1578;DHT22;57623;53.608;10.004;2023-04-01T04:32:24;10.40;99.90
1578;DHT22;57623;53.608;10.004;2023-04-01T04:34:54;10.40;99.90
1578;DHT22;57623;53.608;10.004;2023-04-01T04:37:23;10.40;99.90
1578;DHT22;57623;53.608;10.004;2023-04-01T04:39:52;10.40;99.90
1578;DHT22;57623;53.608;10.004;2023-04-01T04:42:20;10.40;99.90
1578;DHT22;57623;53.608;10.004;2023-04-01T04:44:48;10.40;99.90
1578;DHT22;57623;53.608;10.004;2023-04-01T04:47:16;10.40;99.90
1578;DHT22;57623;53.608;10.004;2023-04-01T04:49:44;10.40;99.90
1578;DHT22;57623;53.608;10.004;2023-04-01T04:52:12;10.40;99.90
1578;DHT22;57623;53.608;10.004;2023-04-01T04:54:41;10.40;99.90
1578;DHT22;57623;53.608;10.004;2023-04-01T04:57:09;10.40;99.90
1578;DHT22;57623;53.608;10.004;2023-04-01T04:59:37;10.40;99.90
1578;DHT22;57623;53.608;10.004;2023-04-01T05:02:05;10.40;99.90
1578;DHT22;57623;53.608;10.004;2023-04-01T05:04:34;10.40;99.90
1578;DHT22;57623;53.608;10.004;2023-04-01T05:07:03;10.40;99.90
1578;DHT22;57623;53.608;10.004;2023-04-01T05:09:31;10.40;99.90
1578;DHT22;57623;53.608;10.004;2023-04-01T05:12:01;10.40;99.90
1578;DHT22;57623;53.608;10.004;2023-04-01T05:14:29;10.40;99.90
1578;DHT22;57623;53.608;10.004;2023-04-01T05:16:57;10.30;99.90
1578;DHT22;57623;53.608;10.004;2023-04-01T05:19:25;10.30;99.90
1578;DHT22;57623;53.608;10.004;2023-04-01T05:21:53;10.30;99.90
1578;DHT22;57623;53.608;10.004;2023-04-01T05:24:20;10.20;99.90
1578;DHT22;57623;53.608;10.004;2023-04-01T05:26:48;10.10;99.90
1578;DHT22;57623;53.608;10.004;2023-04-01T05:29:18;10.00;99.90
1578;DHT22;57623;53.608;10.004;2023-04-01T05:31:46;9.90;99.90
1578;DHT22;57623;53.608;10.004;2023-04-01T05:34:14;9.90;99.90
1578;DHT22;57623;53.608;10.004;2023-04-01T05:36:42;9.80;99.90
1578;DHT22;57623;53.608;10.004;2023-04-01T05:39:10;9.80;99.90
1578;DHT22;57623;53.608;10.004;2023-04-01T05:41:38;9.70;99.90
1578;DHT22;57623;53.608;10.004;2023-04-01T05:44:06;9.70;99.90
1578;DHT22;57623;53.608;10.004;2023-04-01T05:46:36;9.60;99.90
1578;DHT22;57623;53.608;10.004;2023-04-01T05:49:04;9.50;99.90
1578;DHT22;57623;53.608;10.004;2023-04-01T05:51:32;9.40;99.90
1578;DHT22;57623;53.608;10.004;2023-04-01T05:54:00;9.40;99.90
1578;DHT22;57623;53.608;10.004;2023-04-01T05:56:28;9.40;99.90
1578;DHT22;57623;53.608;10.004;2023-04-01T05:58:56;9.30;99.90
1578;DHT22;57623;53.608;10.004;2023-04-01T06:01:24;9.30;99.90
1578;DHT22;57623;53.608;10.004;2023-04-01T06:03:53;9.20;99.90
1578;DHT22;57623;53.608;10.004;2023-04-01T06:06:24;9.20;99.90
1578;DHT22;57623;53.608;10.004;2023-04-01T06:08:53;9.20;99.90
1578;DHT22;57623;53.608;10.004;2023-04-01T06:11:30;9.10;99.90
1578;DHT22;57623;53.608;10.004;2023-04-01T06:14:18;9.00;99.90
1578;DHT22;57623;53.608;10.004;2023-04-01T06:17:02;9.00;99.90
1578;DHT22;57623;53.608;10.004;2023-04-01T06:19:39;9.00;99.90
1578;DHT22;57623;53.608;10.004;2023-04-01T06:22:22;8.90;99.90
1578;DHT22;57623;53.608;10.004;2023-04-01T06:31:29;8.70;99.90
1578;DHT22;57623;53.608;10.004;2023-04-01T06:34:17;8.70;99.90
1578;DHT22;57623;53.608;10.004;2023-04-01T06:37:10;8.60;99.90
1578;DHT22;57623;53.608;10.004;2023-04-01T06:39:58;8.60;99.90
1578;DHT22;57623;53.608;10.004;2023-04-01T06:42:42;8.60;99.90
1578;DHT22;57623;53.608;10.004;2023-04-01T06:45:26;8.60;99.90
1578;DHT22;57623;53.608;10.004;2023-04-01T06:48:06;8.50;99.90
1578;DHT22;57623;53.608;10.004;2023-04-01T06:50:44;8.50;99.90
1578;DHT22;57623;53.608;10.004;2023-04-01T06:53:19;8.50;99.90
1578;DHT22;57623;53.608;10.004;2023-04-01T06:55:51;8.40;99.90
1578;DHT22;57623;53.608;10.004;2023-04-01T06:58:22;8.40;99.90
1578;DHT22;57623;53.608;10.004;2023-04-01T07:00:54;8.40;99.90
1578;DHT22;57623;53.608;10.004;2023-04-01T07:03:29;8.30;99.90
1578;DHT22;57623;53.608;10.004;2023-04-01T07:06:03;8.30;99.90
1578;DHT22;57623;53.608;10.004;2023-04-01T07:08:35;8.30;99.90
1578;DHT22;57623;53.608;10.004;2023-04-01T07:11:09;8.30;99.90
1578;DHT22;57623;53.608;10.004;2023-04-01T07:13:42;8.30;99.90
1578;DHT22;57623;53.608;10.004;2023-04-01T07:16:15;8.30;99.90
1578;DHT22;57623;53.608;10.004;2023-04-01T07:18:48;8.30;99.90
1578;DHT22;57623;53.608;10.004;2023-04-01T07:21:25;8.20;99.90
1578;DHT22;57623;53.608;10.004;2023-04-01T07:24:01;8.20;99.90
1578;DHT22;57623;53.608;10.004;2023-04-01T07:26:31;8.10;99.90
1578;DHT22;57623;53.608;10.004;2023-04-01T07:28:59;8.10;99.90
1578;DHT22;57623;53.608;10.004;2023-04-01T07:31:41;8.10;99.90
1578;DHT22;57623;53.608;10.004;2023-04-01T07:34:19;8.10;99.90
1578;DHT22;57623;53.608;10.004;2023-04-01T07:36:52;8.10;99.90
1578;DHT22;57623;53.608;10.004;2023-04-01T07:39:32;8.10;99.90
1578;DHT22;57623;53.608;10.004;2023-04-01T07:42:09;8.10;99.90
1578;DHT22;57623;53.608;10.004;2023-04-01T07:44:51;8.10;99.90
1578;DHT22;57623;53.608;10.004;2023-04-01T07:47:40;8.00;99.90
1578;DHT22;57623;53.608;10.004;2023-04-01T07:50:16;8.00;99.90
1578;DHT22;57623;53.608;10.004;2023-04-01T07:52:55;8.00;99.90
1578;DHT22;57623;53.608;10.004;2023-04-01T07:55:32;8.00;99.90
1578;DHT22;57623;53.608;10.004;2023-04-01T07:58:07;8.00;99.90
1578;DHT22;57623;53.608;10.004;2023-04-01T08:00:44;7.90;99.90
1578;DHT22;57623;53.608;10.004;2023-04-01T08:03:58;7.90;99.90
1578;DHT22;57623;53.608;10.004;2023-04-01T08:06:35;7.80;99.90
1578;DHT22;57623;53.608;10.004;2023-04-01T08:09:09;7.80;99.90
1578;DHT22;57623;53.608;10.004;2023-04-01T08:11:49;7.80;99.90
1578;DHT22;57623;53.608;10.004;2023-04-01T08:14:30;7.80;99.90
1578;DHT22;57623;53.608;10.004;2023-04-01T08:17:03;7.80;99.90
1578;DHT22;57623;53.608;10.004;2023-04-01T08:19:46;7.80;99.90
1578;DHT22;57623;53.608;10.004;2023-04-01T08:22:25;7.80;99.90
1578;DHT22;57623;53.608;10.004;2023-04-01T08:24:56;7.80;99.90
1578;DHT22;57623;53.608;10.004;2023-04-01T08:27:31;7.80;99.90
1578;DHT22;57623;53.608;10.004;2023-04-01T08:30:05;7.80;99.90
1578;DHT22;57623;53.608;10.004;2023-04-01T08:32:39;7.80;99.90
1578;DHT22;57623;53.608;10.004;2023-04-01T08:35:14;7.80;99.90
1578;DHT22;57623;53.608;10.004;2023-04-01T08:37:45;7.80;99.90
1578;DHT22;57623;53.608;10.004;2023-04-01T08:40:28;7.80;99.90
1578;DHT22;57623;53.608;10.004;2023-04-01T08:43:09;7.70;99.90
1578;DHT22;57623;53.608;10.004;2023-04-01T08:46:02;7.70;99.90
1578;DHT22;57623;53.608;10.004;2023-04-01T08:48:50;7.70;99.90
1578;DHT22;57623;53.608;10.004;2023-04-01T08:51:53;7.70;99.90
1578;DHT22;57623;53.608;10.004;2023-04-01T08:54:46;7.70;99.90
1578;DHT22;57623;53.608;10.004;2023-04-01T08:57:21;7.70;99.90
1578;DHT22;57623;53.608;10.004;2023-04-01T09:00:05;7.70;99.90
1578;DHT22;57623;53.608;10.004;2023-04-01T09:02:55;7.70;99.90
1578;DHT22;57623;53.608;10.004;2023-04-01T09:06:05;7.80;99.90
1578;DHT22;57623;53.608;10.004;2023-04-01T09:08:58;7.80;99.90
1578;DHT22;57623;53.608;10.004;2023-04-01T09:11:38;7.80;99.90
1578;DHT22;57623;53.608;10.004;2023-04-01T09:14:29;7.80;99.90
1578;DHT22;57623;53.608;10.004;2023-04-01T09:17:18;7.80;99.90
1578;DHT22;57623;53.608;10.004;2023-04-01T09:20:05;7.80;99.90
1578;DHT22;57623;53.608;10.004;2023-04-01T09:22:54;7.80;99.90
1578;DHT22;57623;53.608;10.004;2023-04-01T09:25:44;7.90;99.90
1578;DHT22;57623;53.608;10.004;2023-04-01T09:28:17;7.90;99.90
1578;DHT22;57623;53.608;10.004;2023-04-01T09:31:12;8.00;99.90
1578;DHT22;57623;53.608;10.004;2023-04-01T09:34:23;8.00;99.90
1578;DHT22;57623;53.608;10.004;2023-04-01T09:37:06;8.00;99.90
1578;DHT22;57623;53.608;10.004;2023-04-01T09:39:37;8.10;99.90
1578;DHT22;57623;53.608;10.004;2023-04-01T09:45:28;8.00;99.90
1578;DHT22;57623;53.608;10.004;2023-04-01T09:48:09;8.00;99.90
1578;DHT22;57623;53.608;10.004;2023-04-01T09:50:49;8.00;99.90
1578;DHT22;57623;53.608;10.004;2023-04-01T09:53:28;8.00;99.90
1578;DHT22;57623;53.608;10.004;2023-04-01T09:56:39;8.00;99.90
1578;DHT22;57623;53.608;10.004;2023-04-01T09:59:31;8.00;99.90
1578;DHT22;57623;53.608;10.004;2023-04-01T10:02:32;8.00;99.90
1578;DHT22;57623;53.608;10.004;2023-04-01T10:05:48;8.10;99.90
1578;DHT22;57623;53.608;10.004;2023-04-01T10:08:43;8.10;99.90
1578;DHT22;57623;53.608;10.004;2023-04-01T10:11:42;8.10;99.90
1578;DHT22;57623;53.608;10.004;2023-04-01T10:14:31;8.10;99.90
1578;DHT22;57623;53.608;10.004;2023-04-01T10:17:28;8.20;99.90
1578;DHT22;57623;53.608;10.004;2023-04-01T10:20:30;8.30;99.90
1578;DHT22;57623;53.608;10.004;2023-04-01T10:23:22;8.40;99.90
1578;DHT22;57623;53.608;10.004;2023-04-01T10:26:33;8.40;99.90
1578;DHT22;57623;53.608;10.004;2023-04-01T10:32:43;8.50;99.90
1578;DHT22;57623;53.608;10.004;2023-04-01T10:41:53;8.40;99.90
1578;DHT22;57623;53.608;10.004;2023-04-01T10:44:59;8.50;99.90
1578;DHT22;57623;53.608;10.004;2023-04-01T10:48:18;8.50;99.90
1578;DHT22;57623;53.608;10.004;2023-04-01T10:54:20;8.50;99.90
1578;DHT22;57623;53.608;10.004;2023-04-01T10:56:55;8.40;99.90
1578;DHT22;57623;53.608;10.004;2023-04-01T11:09:10;8.40;99.90
1578;DHT22;57623;53.608;10.004;2023-04-01T11:12:05;8.50;99.90
1578;DHT22;57623;53.608;10.004;2023-04-01T11:15:10;8.50;99.90
1578;DHT22;57623;53.608;10.004;2023-04-01T11:24:16;8.40;99.90
1578;DHT22;57623;53.608;10.004;2023-04-01T11:26:55;8.40;99.90
1578;DHT22;57623;53.608;10.004;2023-04-01T11:29:52;8.30;99.90
1578;DHT22;57623;53.608;10.004;2023-04-01T11:32:42;8.30;99.90
1578;DHT22;57623;53.608;10.004;2023-04-01T11:35:42;8.30;99.90
1578;DHT22;57623;53.608;10.004;2023-04-01T11:38:23;8.30;99.90
1578;DHT22;57623;53.608;10.004;2023-04-01T11:40:59;8.20;99.90
1578;DHT22;57623;53.608;10.004;2023-04-01T11:43:37;8.20;99.90
1578;DHT22;57623;53.608;10.004;2023-04-01T11:46:10;8.20;99.90
1578;DHT22;57623;53.608;10.004;2023-04-01T11:48:50;8.10;99.90
1578;DHT22;57623;53.608;10.004;2023-04-01T11:51:42;8.10;99.90
1578;DHT22;57623;53.608;10.004;2023-04-01T11:54:28;8.10;99.90
1578;DHT22;57623;53.608;10.004;2023-04-01T11:57:12;8.10;99.90
1578;DHT22;57623;53.608;10.004;2023-04-01T12:00:13;8.10;99.90
1578;DHT22;57623;53.608;10.004;2023-04-01T12:02:52;8.10;99.90
1578;DHT22;57623;53.608;10.004;2023-04-01T12:05:38;8.10;99.90
1578;DHT22;57623;53.608;10.004;2023-04-01T12:08:23;8.10;99.90
1578;DHT22;57623;53.608;10.004;2023-04-01T12:10:57;8.00;99.90
1578;DHT22;57623;53.608;10.004;2023-04-01T12:13:36;8.00;99.90
1578;DHT22;57623;53.608;10.004;2023-04-01T12:16:15;8.00;99.90
1578;DHT22;57623;53.608;10.004;2023-04-01T12:18:52;7.90;99.90
1578;DHT22;57623;53.608;10.004;2023-04-01T12:21:26;7.90;99.90
1578;DHT22;57623;53.608;10.004;2023-04-01T12:27:03;7.90;99.90
1578;DHT22;57623;53.608;10.004;2023-04-01T12:29:49;7.90;99.90
1578;DHT22;57623;53.608;10.004;2023-04-01T12:32:25;7.90;99.90
1578;DHT22;57623;53.608;10.004;2023-04-01T12:35:13;7.90;99.90
1578;DHT22;57623;53.608;10.004;2023-04-01T12:37:50;7.90;99.90
1578;DHT22;57623;53.608;10.004;2023-04-01T12:40:35;7.90;99.90
1578;DHT22;57623;53.608;10.004;2023-04-01T12:43:49;7.80;99.90
1578;DHT22;57623;53.608;10.004;2023-04-01T12:46:26;7.80;99.90
1578;DHT22;57623;53.608;10.004;2023-04-01T12:49:33;7.80;99.90
1578;DHT22;57623;53.608;10.004;2023-04-01T12:52:10;7.80;99.90
1578;DHT22;57623;53.608;10.004;2023-04-01T12:54:55;7.80;99.90
1578;DHT22;57623;53.608;10.004;2023-04-01T12:57:39;7.80;99.90
1578;DHT22;57623;53.608;10.004;2023-04-01T13:00:27;7.70;99.90
1578;DHT22;57623;53.608;10.004;2023-04-01T13:06:18;7.70;99.90
1578;DHT22;57623;53.608;10.004;2023-04-01T13:08:54;7.60;99.90
1578;DHT22;57623;53.608;10.004;2023-04-01T13:11:35;7.60;99.90
1578;DHT22;57623;53.608;10.004;2023-04-01T13:14:27;7.60;99.90
1578;DHT22;57623;53.608;10.004;2023-04-01T13:17:07;7.50;99.90
1578;DHT22;57623;53.608;10.004;2023-04-01T13:19:45;7.50;99.90
1578;DHT22;57623;53.608;10.004;2023-04-01T13:22:41;7.50;99.90
1578;DHT22;57623;53.608;10.004;2023-04-01T13:25:23;7.50;99.90
1578;DHT22;57623;53.608;10.004;2023-04-01T13:27:58;7.50;99.90
1578;DHT22;57623;53.608;10.004;2023-04-01T13:30:33;7.40;99.90
1578;DHT22;57623;53.608;10.004;2023-04-01T13:33:10;7.40;99.90
1578;DHT22;57623;53.608;10.004;2023-04-01T13:35:48;7.40;99.90
1578;DHT22;57623;53.608;10.004;2023-04-01T13:38:38;7.40;99.90
1578;DHT22;57623;53.608;10.004;2023-04-01T13:41:15;7.30;99.90
1578;DHT22;57623;53.608;10.004;2023-04-01T13:43:52;7.30;99.90
1578;DHT22;57623;53.608;10.004;2023-04-01T13:46:41;7.30;99.90
1578;DHT22;57623;53.608;10.004;2023-04-01T13:49:31;7.30;99.90
1578;DHT22;57623;53.608;10.004;2023-04-01T13:55:30;7.20;99.90
1578;DHT22;57623;53.608;10.004;2023-04-01T13:58:20;7.20;99.90
1578;DHT22;57623;53.608;10.004;2023-04-01T14:00:55;7.20;99.90
1578;DHT22;57623;53.608;10.004;2023-04-01T14:03:32;7.20;99.90
1578;DHT22;57623;53.608;10.004;2023-04-01T14:06:13;7.20;99.90
1578;DHT22;57623;53.608;10.004;2023-04-01T14:08:55;7.20;99.90
1578;DHT22;57623;53.608;10.004;2023-04-01T14:11:31;7.20;99.90
1578;DHT22;57623;53.608;10.004;2023-04-01T14:14:07;7.20;99.90
1578;DHT22;57623;53.608;10.004;2023-04-01T14:17:03;7.20;99.90
1578;DHT22;57623;53.608;10.004;2023-04-01T14:19:59;7.20;99.90
1578;DHT22;57623;53.608;10.004;2023-04-01T14:22:34;7.10;99.90
1578;DHT22;57623;53.608;10.004;2023-04-01T14:25:45;7.10;99.90
1578;DHT22;57623;53.608;10.004;2023-04-01T14:28:21;7.10;99.90
1578;DHT22;57623;53.608;10.004;2023-04-01T14:31:14;7.10;99.90
1578;DHT22;57623;53.608;10.004;2023-04-01T14:33:47;7.10;99.90
1578;DHT22;57623;53.608;10.004;2023-04-01T14:36:35;7.10;99.90
1578;DHT22;57623;53.608;10.004;2023-04-01T14:39:35;7.10;99.90
1578;DHT22;57623;53.608;10.004;2023-04-01T14:42:23;7.10;99.90
1578;DHT22;57623;53.608;10.004;2023-04-01T14:45:26;7.10;99.90
1578;DHT22;57623;53.608;10.004;2023-04-01T14:48:03;7.10;99.90
1578;DHT22;57623;53.608;10.004;2023-04-01T14:50:41;7.10;99.90
1578;DHT22;57623;53.608;10.004;2023-04-01T14:53:16;7.00;99.90
1578;DHT22;57623;53.608;10.004;2023-04-01T14:55:54;7.00;99.90
1578;DHT22;57623;53.608;10.004;2023-04-01T14:58:40;6.90;99.90
1578;DHT22;57623;53.608;10.004;2023-04-01T15:01:18;6.90;99.90
1578;DHT22;57623;53.608;10.004;2023-04-01T15:03:55;6.90;99.90
1578;DHT22;57623;53.608;10.004;2023-04-01T15:06:39;6.90;99.90
1578;DHT22;57623;53.608;10.004;2023-04-01T15:09:17;6.90;99.90
1578;DHT22;57623;53.608;10.004;2023-04-01T15:12:00;6.80;99.90
1578;DHT22;57623;53.608;10.004;2023-04-01T15:14:49;6.80;99.90
1578;DHT22;57623;53.608;10.004;2023-04-01T15:17:33;6.70;99.90
1578;DHT22;57623;53.608;10.004;2023-04-01T15:23:17;6.60;99.90
1578;DHT22;57623;53.608;10.004;2023-04-01T15:26:09;6.60;99.90
1578;DHT22;57623;53.608;10.004;2023-04-01T15:28:45;6.60;99.90
1578;DHT22;57623;53.608;10.004;2023-04-01T15:31:21;6.60;99.90
1578;DHT22;57623;53.608;10.004;2023-04-01T15:34:16;6.60;99.90
1578;DHT22;57623;53.608;10.004;2023-04-01T15:36:51;6.60;99.90
1578;DHT22;57623;53.608;10.004;2023-04-01T15:39:27;6.60;99.90
1578;DHT22;57623;53.608;10.004;2023-04-01T15:42:11;6.60;99.90
1578;DHT22;57623;53.608;10.004;2023-04-01T15:45:07;6.50;99.90
1578;DHT22;57623;53.608;10.004;2023-04-01T15:47:45;6.50;99.90
1578;DHT22;57623;53.608;10.004;2023-04-01T15:53:56;6.50;99.90
1578;DHT22;57623;53.608;10.004;2023-04-01T15:56:45;6.40;99.90
1578;DHT22;57623;53.608;10.004;2023-04-01T15:59:32;6.40;99.90
1578;DHT22;57623;53.608;10.004;2023-04-01T16:02:13;6.40;99.90
1578;DHT22;57623;53.608;10.004;2023-04-01T16:04:55;6.40;99.90
1578;DHT22;57623;53.608;10.004;2023-04-01T16:07:48;6.30;99.90
1578;DHT22;57623;53.608;10.004;2023-04-01T16:10:23;6.30;99.90
1578;DHT22;57623;53.608;10.004;2023-04-01T16:13:04;6.30;99.90
1578;DHT22;57623;53.608;10.004;2023-04-01T16:15:44;6.20;99.90
1578;DHT22;57623;53.608;10.004;2023-04-01T16:18:34;6.30;99.90
1578;DHT22;57623;53.608;10.004;2023-04-01T16:21:14;6.20;99.90
1578;DHT22;57623;53.608;10.004;2023-04-01T16:23:49;6.20;99.90
1578;DHT22;57623;53.608;10.004;2023-04-01T16:26:22;6.20;99.90
1578;DHT22;57623;53.608;10.004;2023-04-01T16:28:55;6.20;99.90
1578;DHT22;57623;53.608;10.004;2023-04-01T16:31:32;6.30;99.90
1578;DHT22;57623;53.608;10.004;2023-04-01T16:34:07;6.30;99.90
1578;DHT22;57623;53.608;10.004;2023-04-01T16:36:43;6.30;99.90
1578;DHT22;57623;53.608;10.004;2023-04-01T16:39:26;6.30;99.90
1578;DHT22;57623;53.608;10.004;2023-04-01T16:42:11;6.20;99.90
1578;DHT22;57623;53.608;10.004;2023-04-01T16:44:49;6.20;99.90
1578;DHT22;57623;53.608;10.004;2023-04-01T16:47:21;6.20;99.90
1578;DHT22;57623;53.608;10.004;2023-04-01T16:49:53;6.20;99.90
1578;DHT22;57623;53.608;10.004;2023-04-01T16:52:43;6.20;99.90
1578;DHT22;57623;53.608;10.004;2023-04-01T16:55:17;6.10;99.90
1578;DHT22;57623;53.608;10.004;2023-04-01T16:57:50;6.00;99.90
1578;DHT22;57623;53.608;10.004;2023-04-01T17:00:25;6.00;99.90
1578;DHT22;57623;53.608;10.004;2023-04-01T17:03:03;6.00;99.90
1578;DHT22;57623;53.608;10.004;2023-04-01T17:05:43;5.90;99.90
1578;DHT22;57623;53.608;10.004;2023-04-01T17:08:26;5.90;99.90
1578;DHT22;57623;53.608;10.004;2023-04-01T17:10:59;5.90;99.90
1578;DHT22;57623;53.608;10.004;2023-04-01T17:13:35;5.90;99.90
1578;DHT22;57623;53.608;10.004;2023-04-01T17:16:20;5.80;99.90
1578;DHT22;57623;53.608;10.004;2023-04-01T17:19:01;5.80;99.90
1578;DHT22;57623;53.608;10.004;2023-04-01T17:21:50;5.80;99.90
1578;DHT22;57623;53.608;10.004;2023-04-01T17:24:31;5.70;99.90
1578;DHT22;57623;53.608;10.004;2023-04-01T17:27:13;5.70;99.90
1578;DHT22;57623;53.608;10.004;2023-04-01T17:30:05;5.70;99.90
1578;DHT22;57623;53.608;10.004;2023-04-01T17:32:46;5.70;99.90
1578;DHT22;57623;53.608;10.004;2023-04-01T17:35:20;5.70;99.90
1578;DHT22;57623;53.608;10.004;2023-04-01T17:38:01;5.60;99.90
1578;DHT22;57623;53.608;10.004;2023-04-01T17:40:52;5.70;99.90
1578;DHT22;57623;53.608;10.004;2023-04-01T17:43:32;5.60;99.90